Flight Track Log - Related Links

Times and Time Zones

All times are in EDT time to prevent confusion due to time zone crossing. See the UAL906 flight status page for this flight to view local times or setup timezone preferences in your user account.

Time Position Orientation Groundspeed Altitude Reporting Facility
EDT Latitude Longitude Course Direction KTS MPH feet Rate Location/Type
Mon 07:01:10 AM 50.0420 8.5740 270° West 115 132  Level FlightAware ADS-B
Mon 07:01:36 AM 50.0360 8.5480 250° West 182 209 100 1,043 Climbing FlightAware ADS-B
Mon 07:01:56 AM 50.0300 8.5250 248° West 186 214 800 2,211 Climbing FlightAware ADS-B
Mon 07:02:14 AM 50.0270 8.5000 259° West 190 219 1,500 2,400 Climbing FlightAware ADS-B
Mon 07:02:36 AM 50.0290 8.4690 276° West 191 220 2,400 2,368 Climbing FlightAware ADS-B
Mon 07:02:52 AM 50.0300 8.4480 274° West 194 223 3,000 1,667 Climbing FlightAware ADS-B
Mon 07:03:12 AM 50.0280 8.4230 263° West 202 232 3,400 1,200 Climbing FlightAware ADS-B
Mon 07:03:32 AM 50.0240 8.3900 259° West 231 266 3,800 1,200 Climbing FlightAware ADS-B
Mon 07:03:52 AM 50.0200 8.3540 260° West 255 293 4,200 1,800 Climbing FlightAware ADS-B
Mon 07:04:12 AM 50.0150 8.3170 258° West 266 306 5,000 2,400 Climbing FlightAware ADS-B
Mon 07:04:22 AM 50.0140 8.3010 264° West 266 306 5,400 2,400 Climbing FlightAware ADS-B
Mon 07:04:32 AM 50.0140 8.2800 270° West 266 306 5,800 2,700 Climbing FlightAware ADS-B
Mon 07:04:42 AM 50.0180 8.2610 288° West 269 310 6,300 2,000 Climbing FlightAware ADS-B
Mon 07:05:02 AM 50.0270 8.2270 292° West 265 305 6,800 1,050 Climbing FlightAware ADS-B
Mon 07:05:22 AM 50.0380 8.1890 294° West 273 314 7,000 267 Climbing FlightAware ADS-B
Mon 07:05:47 AM 50.0510 8.1460 295° West 272 313 7,000 667 Level FlightAware ADS-B
Mon 07:06:07 AM 50.0640 8.1120 301° West 269 310 7,500 1,950 Climbing FlightAware ADS-B
Mon 07:06:27 AM 50.0800 8.0800 308° West 272 313 8,300 2,400 Climbing FlightAware ADS-B
Mon 07:06:47 AM 50.0950 8.0510 309° West 274 315 9,100 2,400 Climbing FlightAware ADS-B
Mon 07:07:07 AM 50.1110 8.0200 309° West 284 327 9,900 1,821 Climbing FlightAware ADS-B
Mon 07:07:43 AM 50.1400 7.9620 308° West 310 357 10,800 1,407 Climbing FlightAware ADS-B
Mon 07:08:28 AM 50.1880 7.8700 309° West 356 410 11,800 1,538 Climbing FlightAware ADS-B
Mon 07:09:01 AM 50.2220 7.8020 308° West 373 429 12,800 2,080 Climbing FlightAware ADS-B
Mon 07:09:43 AM 50.2750 7.7250 317° Northwest 382 440 14,400 2,211 Climbing FlightAware ADS-B
Mon 07:10:17 AM 50.3300 7.6860 336° Northwest 387 445 15,600 2,174 Climbing FlightAware ADS-B
Mon 07:10:52 AM 50.3830 7.6500 337° Northwest 393 452 16,900 2,167 Climbing FlightAware ADS-B
Mon 07:11:29 AM 50.4460 7.6070 337° Northwest 389 448 18,200 2,113 Climbing FlightAware ADS-B
Mon 07:12:03 AM 50.5060 7.5660 337° Northwest 392 451 19,400 1,826 Climbing FlightAware ADS-B
Mon 07:12:38 AM 50.5590 7.5260 334° Northwest 405 466 20,300 1,800 Climbing FlightAware ADS-B
Mon 07:13:13 AM 50.6200 7.4670 328° Northwest 408 470 21,500 1,800 Climbing FlightAware ADS-B
Mon 07:13:48 AM 50.6730 7.4120 327° Northwest 406 467 22,400 1,543 Climbing FlightAware ADS-B
Mon 07:14:23 AM 50.7300 7.3530 327° Northwest 412 474 23,300 1,371 Climbing FlightAware ADS-B
Mon 07:14:58 AM 50.7830 7.2980 327° Northwest 424 488 24,000 1,457 Climbing FlightAware ADS-B
Mon 07:15:33 AM 50.8460 7.2340 327° Northwest 423 487 25,000 1,521 Climbing FlightAware ADS-B
Mon 07:16:09 AM 50.9060 7.1720 327° Northwest 426 490 25,800 1,200 Climbing FlightAware ADS-B
Mon 07:16:38 AM 50.9500 7.1180 322° Northwest 432 497 26,300 1,224 Climbing FlightAware ADS-B
Mon 07:16:58 AM 50.9790 7.0610 309° West 442 509 26,800 1,309 Climbing FlightAware ADS-B
Mon 07:17:33 AM 51.0100 6.9560 295° West 449 517 27,500 1,200 Climbing FlightAware ADS-B
Mon 07:18:13 AM 51.0420 6.8390 294° West 453 521 28,300 1,440 Climbing FlightAware ADS-B
Mon 07:18:48 AM 51.0720 6.7290 293° West 450 518 29,300 1,200 Climbing FlightAware ADS-B
Mon 07:19:23 AM 51.0990 6.6260 293° West 457 526 29,700 600 Climbing FlightAware ADS-B
Mon 07:19:58 AM 51.1310 6.5100 294° West 466 536 30,000 985 Climbing FlightAware ADS-B
Mon 07:20:30 AM 51.1550 6.4190 293° West 466 536 30,800 1,521 Climbing FlightAware ADS-B
Mon 07:21:09 AM 51.1880 6.2950 293° West 460 529 31,800 1,297 Climbing FlightAware ADS-B
Mon 07:21:44 AM 51.2180 6.1840 293° West 460 529 32,400 1,029 Climbing FlightAware ADS-B
Mon 07:22:19 AM 51.2470 6.0720 293° West 460 529 33,000 1,083 Climbing FlightAware ADS-B
Mon 07:22:56 AM 51.2770 5.9590 293° West 457 526 33,700 896 Climbing FlightAware ADS-B
Mon 07:23:26 AM 51.3040 5.8580 293° West 458 527 34,000 269 Climbing FlightAware ADS-B
Mon 07:24:03 AM 51.3330 5.7450 292° West 459 528 34,000  Level FlightAware ADS-B
Mon 07:24:42 AM 51.3630 5.6280 292° West 458 527 34,000  Level FlightAware ADS-B
Mon 07:25:14 AM 51.3890 5.5280 293° West 458 527 34,000  Level FlightAware ADS-B
Mon 07:25:47 AM 51.4170 5.4190 292° West 459 528 34,000 -91 Level FlightAware ADS-B
Mon 07:26:20 AM 51.4420 5.3149 292° West 490 564 33,900  Descending FlightAware UK
Mon 07:26:26 AM 51.4480 5.2980 292° West 458 527 34,000 146 Climbing FlightAware ADS-B
Mon 07:27:01 AM 51.4730 5.2000 292° West 458 527 34,000  Level FlightAware ADS-B
Mon 07:27:42 AM 51.5090 5.0590 292° West 459 528 34,000  Level FlightAware ADS-B
Mon 07:28:17 AM 51.5360 4.9510 292° West 459 528 34,000  Level FlightAware ADS-B
Mon 07:28:55 AM 51.5620 4.8290 289° West 458 527 34,000  Level FlightAware ADS-B
Mon 07:29:34 AM 51.5800 4.6970 282° West 458 527 34,000  Level FlightAware ADS-B
Mon 07:30:11 AM 51.5940 4.5770 281° West 459 528 34,000  Level FlightAware ADS-B
Mon 07:30:44 AM 51.6080 4.4630 281° West 460 529 34,000  Level FlightAware ADS-B
Mon 07:31:20 AM 51.6220 4.3450 281° West 460 529 34,000  Level FlightAware ADS-B
Mon 07:31:54 AM 51.6360 4.2310 281° West 461 531 34,000  Level FlightAware ADS-B
Mon 07:32:30 AM 51.6460 4.1060 277° West 460 529 34,000  Level FlightAware ADS-B
Mon 07:33:05 AM 51.6500 3.9910 273° West 460 529 34,000  Level FlightAware ADS-B
Mon 07:33:36 AM 51.6520 3.8920 272° West 460 529 34,000  Level FlightAware ADS-B
Mon 07:34:15 AM 51.6540 3.7450 271° West 460 529 34,000  Level FlightAware ADS-B
Mon 07:34:49 AM 51.6553 3.6278 271° West 486 559 34,000  Level FlightAware UK
Mon 07:34:52 AM 51.6560 3.6180 271° West 461 531 34,000  Level FlightAware ADS-B
Mon 07:35:24 AM 51.6570 3.5090 271° West 462 532 34,000  Level FlightAware ADS-B
Mon 07:35:25 AM 51.6562 3.5043 271° West 486 559 34,000  Level FlightAware UK
Mon 07:35:55 AM 51.6572 3.4013 271° West 486 559 34,000  Level FlightAware UK
Mon 07:36:01 AM 51.6580 3.3850 271° West 463 533 34,000  Level FlightAware ADS-B
Mon 07:36:31 AM 51.6589 3.2778 271° West 486 559 34,000  Level FlightAware UK
Mon 07:36:33 AM 51.6590 3.2700 271° West 464 534 34,000  Level FlightAware ADS-B
Mon 07:37:10 AM 51.6600 3.1540 271° West 465 535 34,000  Level FlightAware ADS-B
Mon 07:37:45 AM 51.6610 3.0280 271° West 465 535 34,000  Level FlightAware ADS-B
Mon 07:38:22 AM 51.6620 2.8960 271° West 466 536 34,000  Level FlightAware ADS-B
Mon 07:38:53 AM 51.6630 2.7910 271° West 466 536 34,000  Level FlightAware ADS-B
Mon 07:39:30 AM 51.6630 2.6680 270° West 466 536 34,000  Level FlightAware ADS-B
Mon 07:40:06 AM 51.6640 2.5360 271° West 467 537 34,000  Level FlightAware ADS-B
Mon 07:40:38 AM 51.6640 2.4280 270° West 467 537 34,000  Level FlightAware ADS-B
Mon 07:41:11 AM 51.6640 2.3170 270° West 467 537 34,000  Level FlightAware ADS-B
Mon 07:41:48 AM 51.6640 2.1940 270° West 466 536 34,000  Level FlightAware ADS-B
Mon 07:42:19 AM 51.6643 2.0744 270° West 492 566 34,000  Level FlightAware UK
Mon 07:42:23 AM 51.6640 2.0700 270° West 465 535 34,000  Level FlightAware ADS-B
Mon 07:43:00 AM 51.6640 1.9350 270° West 464 534 34,000  Level FlightAware ADS-B
Mon 07:43:31 AM 51.6633 1.8268 270° West 488 562 34,000  Level FlightAware UK
Mon 07:43:35 AM 51.6630 1.8250 270° West 464 534 34,000  Level FlightAware ADS-B (CYTZ)
Mon 07:44:07 AM 51.6630 1.7120 270° West 464 534 34,000  Level FlightAware ADS-B (CYTZ)
Mon 07:44:41 AM 51.6630 1.5980 270° West 465 535 34,000  Level FlightAware ADS-B (CYTZ)
Mon 07:45:21 AM 51.6620 1.4510 269° West 466 536 34,000  Level FlightAware ADS-B (CYTZ)
Mon 07:45:55 AM 51.6620 1.3330 270° West 466 536 34,000  Level FlightAware ADS-B (CYTZ)
Mon 07:46:29 AM 51.6630 1.2230 271° West 466 536 34,000  Level FlightAware ADS-B (CYTZ)
Mon 07:47:05 AM 51.6640 1.0940 271° West 467 537 34,000  Level FlightAware ADS-B (CYTZ)
Mon 07:47:39 AM 51.6650 0.9740 271° West 466 536 34,000  Level FlightAware ADS-B (CYTZ)
Mon 07:48:17 AM 51.6650 0.8520 270° West 466 536 34,000  Level FlightAware ADS-B
Mon 07:48:49 AM 51.6660 0.7370 271° West 465 535 34,000  Level FlightAware ADS-B
Mon 07:49:20 AM 51.6670 0.6310 271° West 465 535 34,000  Level FlightAware ADS-B
Mon 07:50:02 AM 51.6680 0.4800 271° West 464 534 34,000  Level FlightAware ADS-B
Mon 07:50:33 AM 51.6690 0.3750 271° West 464 534 34,000 -176 Level FlightAware ADS-B
Mon 07:50:36 AM 51.6685 0.3594 271° West 490 564 33,900  Descending FlightAware UK
Mon 07:51:07 AM 51.6690 0.2550 270° West 464 534 34,000 86 Climbing FlightAware ADS-B
Mon 07:51:46 AM 51.6690 0.1230 270° West 464 534 34,000  Level FlightAware ADS-B
Mon 07:52:19 AM 51.6700 0.0170 271° West 464 534 34,000  Level FlightAware ADS-B
Mon 07:52:51 AM 51.6700 -0.1010 270° West 464 534 34,000  Level FlightAware ADS-B
Mon 07:53:29 AM 51.6700 -0.2250 270° West 464 534 34,000  Level FlightAware ADS-B
Mon 07:54:03 AM 51.6700 -0.3470 270° West 465 535 34,000  Level FlightAware ADS-B
Mon 07:54:05 AM 51.6706 -0.3619 270° West 488 562 34,000 -188 Level FlightAware UK
Mon 07:54:35 AM 51.6711 -0.4654 270° West 488 562 33,900  Descending FlightAware UK
Mon 07:54:37 AM 51.6710 -0.4630 270° West 466 536 34,000 158 Climbing FlightAware ADS-B
Mon 07:55:13 AM 51.6710 -0.5930 270° West 466 536 34,000  Level FlightAware ADS-B
Mon 07:55:48 AM 51.6710 -0.7100 270° West 466 536 34,000  Level FlightAware ADS-B
Mon 07:56:28 AM 51.6710 -0.8450 270° West 467 537 34,000  Level FlightAware ADS-B
Mon 07:57:03 AM 51.6710 -0.9730 270° West 467 537 34,000  Level FlightAware ADS-B
Mon 07:57:35 AM 51.6710 -1.0873 270° West 488 562 34,000  Level FlightAware UK
Mon 07:57:51 AM 51.6710 -1.1380 270° West 468 539 34,000  Level FlightAware ADS-B
Mon 07:58:21 AM 51.6710 -1.2400 270° West 467 537 34,000  Level FlightAware ADS-B
Mon 07:58:58 AM 51.6760 -1.3540 270° West 470 541 34,000  Level FlightAware ADS-B
Mon 07:58:59 AM 51.6794 -1.3777 270° West 488 562 34,000  Level FlightAware UK
Mon 07:59:34 AM 51.6920 -1.4900 281° West 471 542 34,000  Level FlightAware ADS-B
Mon 08:00:14 AM 51.7070 -1.6280 280° West 471 542 34,000  Level FlightAware ADS-B
Mon 08:00:49 AM 51.7190 -1.7410 280° West 469 540 34,000  Level FlightAware ADS-B
Mon 08:01:24 AM 51.7330 -1.8710 280° West 469 540 34,000  Level FlightAware ADS-B
Mon 08:01:59 AM 51.7440 -1.9780 279° West 469 540 34,000  Level FlightAware ADS-B
Mon 08:02:37 AM 51.7590 -2.1240 279° West 471 542 34,000  Level FlightAware ADS-B
Mon 08:03:10 AM 51.7700 -2.2390 279° West 471 542 34,000  Level FlightAware ADS-B
Mon 08:03:46 AM 51.7830 -2.3640 280° West 471 542 34,000  Level FlightAware ADS-B
Mon 08:04:22 AM 51.7960 -2.4920 279° West 472 543 34,000  Level FlightAware ADS-B
Mon 08:04:54 AM 51.8070 -2.6000 279° West 472 543 34,000  Level FlightAware ADS-B
Mon 08:05:30 AM 51.8210 -2.7300 280° West 473 544 34,000 -86 Level FlightAware ADS-B
Mon 08:06:04 AM 51.8328 -2.8468 280° West 488 562 33,900  Descending FlightAware UK
Mon 08:06:06 AM 51.8340 -2.8550 280° West 474 545 34,000  Climbing FlightAware ADS-B
Mon 08:06:40 AM 51.8458 -2.9719 280° West 488 562 33,900  Descending FlightAware UK
Mon 08:06:40 AM 51.8460 -2.9720 280° West 475 547 34,000  Climbing FlightAware ADS-B
Mon 08:07:10 AM 51.8563 -3.0776 280° West 490 564 33,900  Descending FlightAware UK
Mon 08:07:17 AM 51.8580 -3.1010 280° West 475 547 34,000 143 Climbing FlightAware ADS-B
Mon 08:07:52 AM 51.8700 -3.2240 279° West 474 545 34,000  Level FlightAware ADS-B
Mon 08:08:24 AM 51.8810 -3.3330 279° West 473 544 34,000  Level FlightAware ADS-B
Mon 08:09:00 AM 51.8930 -3.4630 279° West 473 544 34,000  Level FlightAware ADS-B
Mon 08:09:36 AM 51.9050 -3.5870 279° West 473 544 34,000  Level FlightAware ADS-B
Mon 08:10:12 AM 51.9170 -3.7150 279° West 474 545 34,000  Level FlightAware ADS-B
Mon 08:10:44 AM 51.9280 -3.8270 279° West 474 545 34,000  Level FlightAware ADS-B
Mon 08:11:09 AM 51.9340 -3.8940 279° West 475 547 34,000 -162 Level FlightAware ADS-B
Mon 08:11:21 AM 51.9407 -3.9570 279° West 490 564 33,900  Descending FlightAware UK
Mon 08:12:00 AM 51.9540 -4.0880 279° West 474 545 34,000  Climbing FlightAware ADS-B
Mon 08:12:03 AM 51.9553 -4.1042 279° West 488 562 33,900 -182 Descending FlightAware UK
Mon 08:12:33 AM 51.9658 -4.2095 279° West 488 562 33,900 188 Level FlightAware UK
Mon 08:12:35 AM 51.9660 -4.2100 279° West 474 545 34,000 154 Climbing FlightAware ADS-B
Mon 08:13:12 AM 51.9780 -4.3290 279° West 474 545 34,000  Level FlightAware ADS-B
Mon 08:13:45 AM 51.9910 -4.4510 280° West 475 547 34,000  Level FlightAware ADS-B
Mon 08:14:20 AM 52.0040 -4.5760 280° West 474 545 34,000 -167 Level FlightAware ADS-B
Mon 08:14:21 AM 52.0053 -4.5873 280° West 488 562 33,900 -194 Descending FlightAware UK
Mon 08:14:51 AM 52.0172 -4.6922 280° West 488 562 33,900 154 Level FlightAware UK
Mon 08:15:00 AM 52.0220 -4.7090 280° West 481 554 34,000 171 Climbing FlightAware ADS-B
Mon 08:15:26 AM 52.0470 -4.7970 295° West 490 564 34,000  Level FlightAware ADS-B
Mon 08:16:00 AM 52.0950 -4.9030 306° West 494 568 34,000  Level FlightAware ADS-B
Mon 08:16:34 AM 52.1420 -5.0040 307° West 495 570 34,000  Level FlightAware ADS-B
Mon 08:17:08 AM 52.1890 -5.1040 307° West 496 571 34,000  Level FlightAware ADS-B
Mon 08:17:09 AM 52.1929 -5.1111 307° West 488 562 34,000 -194 Level FlightAware UK
Mon 08:17:39 AM 52.2343 -5.2002 307° West 488 562 33,900  Descending FlightAware UK
Mon 08:17:48 AM 52.2460 -5.2260 307° West 496 571 34,000 146 Climbing FlightAware ADS-B
Mon 08:18:20 AM 52.2880 -5.3170 307° West 496 571 34,000 -182 Level FlightAware ADS-B
Mon 08:18:21 AM 52.2925 -5.3255 307° West 488 562 33,900  Descending FlightAware UK
Mon 08:18:51 AM 52.3339 -5.4152 307° West 490 564 34,000 171 Climbing FlightAware UK
Mon 08:18:56 AM 52.3370 -5.4240 307° West 496 571 34,000  Level FlightAware ADS-B
Mon 08:19:32 AM 52.3870 -5.5320 307° West 495 570 34,000  Level FlightAware ADS-B
Mon 08:20:03 AM 52.4326 -5.6306 307° West 488 562 34,000  Level FlightAware UK
Mon 08:20:08 AM 52.4380 -5.6420 307° West 495 570 34,000  Level FlightAware ADS-B
Mon 08:20:36 AM 52.4760 -5.7270 307° West 496 571 34,000 -194 Level FlightAware ADS-B
Mon 08:20:39 AM 52.4817 -5.7386 307° West 488 562 33,900 -182 Descending FlightAware UK
Mon 08:21:09 AM 52.5226 -5.8288 307° West 488 562 33,900 162 Level FlightAware UK
Mon 08:21:16 AM 52.5310 -5.8490 307° West 496 571 34,000 146 Climbing FlightAware ADS-B
Mon 08:21:50 AM 52.5770 -5.9500 307° West 496 571 34,000  Level FlightAware ADS-B
Mon 08:22:27 AM 52.6270 -6.0610 307° West 497 572 34,000  Level FlightAware ADS-B
Mon 08:22:59 AM 52.6720 -6.1610 307° West 498 573 34,000 -167 Level FlightAware ADS-B
Mon 08:23:03 AM 52.6778 -6.1735 307° West 488 562 33,900  Descending FlightAware UK
Mon 08:23:33 AM 52.7186 -6.2652 307° West 490 564 34,000 176 Climbing FlightAware UK
Mon 08:23:37 AM 52.7230 -6.2760 307° West 498 573 34,000  Level FlightAware ADS-B
Mon 08:24:11 AM 52.7700 -6.3820 306° West 498 573 34,000  Level FlightAware ADS-B
Mon 08:24:46 AM 52.8180 -6.4890 307° West 499 574 34,000  Level FlightAware ADS-B
Mon 08:25:22 AM 52.8670 -6.6010 306° West 499 574 34,000  Level FlightAware ADS-B
Mon 08:25:58 AM 52.9140 -6.7090 306° West 499 574 34,000  Level FlightAware ADS-B
Mon 08:26:30 AM 52.9580 -6.8100 306° West 498 573 34,000  Level FlightAware ADS-B
Mon 08:26:33 AM 52.9626 -6.8187 306° West 488 562 34,000  Level FlightAware UK
Mon 08:27:03 AM 53.0029 -6.9116 306° West 488 562 34,000  Level FlightAware UK
Mon 08:27:06 AM 53.0070 -6.9230 306° West 500 575 34,000  Level FlightAware ADS-B
Mon 08:27:40 AM 53.0530 -7.0280 306° West 499 574 34,000  Level FlightAware ADS-B
Mon 08:28:15 AM 53.0960 -7.1270 306° West 500 575 34,000  Level FlightAware ADS-B
Mon 08:28:51 AM 53.1470 -7.2470 305° West 499 574 34,000  Level FlightAware ADS-B
Mon 08:29:27 AM 53.1950 -7.3600 305° West 499 574 34,000  Level FlightAware ADS-B
Mon 08:29:59 AM 53.2390 -7.4610 306° West 502 578 34,000  Level FlightAware ADS-B
Mon 08:30:34 AM 53.2840 -7.5690 305° West 501 577 34,000  Level FlightAware ADS-B
Mon 08:31:08 AM 53.3320 -7.6814 305° West 484 557 34,000  Level FlightAware UK
Mon 08:31:10 AM 53.3330 -7.6840 305° West 503 579 34,000  Level FlightAware ADS-B
Mon 08:31:46 AM 53.3820 -7.8010 305° West 504 580 34,000  Level FlightAware ADS-B
Mon 08:32:18 AM 53.4240 -7.9010 305° West 506 582 34,000  Level FlightAware ADS-B
Mon 08:32:53 AM 53.4710 -8.0140 305° West 507 583 34,000  Level FlightAware ADS-B
Mon 08:33:28 AM 53.5130 -8.1150 305° West 507 583 34,000  Level FlightAware ADS-B
Mon 08:34:06 AM 53.5690 -8.2510 305° West 507 583 34,000 -150 Level FlightAware ADS-B
Mon 08:34:08 AM 53.5725 -8.2593 305° West 486 559 33,900  Descending FlightAware UK
Mon 08:34:38 AM 53.6124 -8.3565 305° West 486 559 34,000 200 Climbing FlightAware UK
Mon 08:34:38 AM 53.6110 -8.3540 305° West 507 583 34,000  Level FlightAware ADS-B
Mon 08:35:08 AM 53.6523 -8.4539 305° West 486 559 34,000  Level FlightAware UK
Mon 08:35:13 AM 53.6570 -8.4660 305° West 507 583 34,000  Level FlightAware ADS-B
Mon 08:35:44 AM 53.6996 -8.5703 305° West 486 559 34,000  Level FlightAware UK
Mon 08:35:49 AM 53.7040 -8.5820 305° West 507 583 34,000  Level FlightAware ADS-B
Mon 08:36:27 AM 53.7540 -8.7050 305° West 508 585 34,000  Level FlightAware ADS-B
Mon 08:37:03 AM 53.8010 -8.8220 304° West 504 580 34,000  Level FlightAware ADS-B
Mon 08:37:34 AM 53.8410 -8.9220 304° West 504 580 34,000  Level FlightAware ADS-B
Mon 08:38:09 AM 53.8870 -9.0360 304° West 504 580 34,000  Level FlightAware ADS-B
Mon 08:38:48 AM 53.9400 -9.1700 304° West 504 580 34,000  Level FlightAware ADS-B
Mon 08:39:18 AM 53.9780 -9.2660 304° West 504 580 34,000  Level FlightAware ADS-B
Mon 08:39:49 AM 54.0180 -9.3660 304° West 504 580 34,000  Level FlightAware ADS-B
Mon 08:40:23 AM 54.0640 -9.4850 303° West 502 578 34,000  Level FlightAware ADS-B
Mon 08:40:55 AM 54.1060 -9.5920 304° West 503 579 34,000  Level FlightAware ADS-B
Mon 08:41:34 AM 54.1550 -9.7170 304° West 501 577 34,000  Level FlightAware ADS-B
Mon 08:42:09 AM 54.1990 -9.8310 303° West 506 582 34,000  Level FlightAware ADS-B
Mon 08:42:44 AM 54.2450 -9.9500 304° West 504 580 34,000  Level FlightAware ADS-B
Mon 08:43:30 AM 54.2990 -10.0900 304° West 504 580 34,000  Level FlightAware ADS-B
Mon 08:44:08 AM 54.3520 -10.2310 303° West 503 579 34,000  Level FlightAware ADS-B
Mon 08:44:43 AM 54.3960 -10.3470 303° West 503 579 34,000  Level FlightAware ADS-B
Mon 08:45:14 AM 54.4340 -10.4470 303° West 502 578 34,000  Level FlightAware ADS-B
Mon 08:45:55 AM 54.4860 -10.5860 303° West 503 579 34,000  Level FlightAware ADS-B
Mon 08:46:25 AM 54.5200 -10.6770 303° West 502 578 34,000  Level FlightAware ADS-B
Mon 08:47:11 AM 54.5820 -10.8430 303° West 497 572 34,000  Level FlightAware ADS-B
Mon 08:47:51 AM 54.6320 -10.9770 303° West 496 571 34,000  Level FlightAware ADS-B
Mon 08:48:27 AM 54.6760 -11.0970 302° West 495 570 34,000  Level FlightAware ADS-B
Mon 08:49:01 AM 54.7170 -11.2100 302° West 494 568 34,000  Level FlightAware ADS-B
Mon 08:49:36 AM 54.7600 -11.3280 302° West 494 568 34,000  Level FlightAware ADS-B
Mon 08:50:11 AM 54.8020 -11.4440 302° West 494 568 34,000  Level FlightAware ADS-B
Mon 08:50:52 AM 54.8530 -11.5830 303° West 493 567 34,000  Level FlightAware ADS-B
Mon 08:51:31 AM 54.9000 -11.7160 302° West 497 572 34,000  Level FlightAware ADS-B
Mon 08:52:20 AM 54.9520 -11.8630 302° West 497 572 34,000  Level FlightAware ADS-B
Mon 08:53:00 AM 55.0080 -12.0170 302° West 497 572 34,000  Level FlightAware ADS-B
Mon 08:53:35 AM 55.0470 -12.1280 302° West 495 570 34,000  Level FlightAware ADS-B
Mon 08:54:17 AM 55.0920 -12.2580 301° West 495 570 34,000  Level FlightAware ADS-B
Mon 08:54:56 AM 55.1440 -12.4060 302° West 495 570 34,000  Level FlightAware ADS-B
Mon 08:55:32 AM 55.1890 -12.5350 301° West 495 570 34,000  Level FlightAware ADS-B
Mon 08:56:11 AM 55.2350 -12.6690 301° West 496 571 34,000  Level FlightAware ADS-B
Mon 08:56:49 AM 55.2730 -12.7800 301° West 496 571 34,000  Level FlightAware ADS-B
Mon 08:57:25 AM 55.3090 -12.8860 301° West 496 571 34,000  Level FlightAware ADS-B
Mon 08:57:59 AM 55.3580 -13.0280 301° West 496 571 34,000  Level FlightAware ADS-B
Mon 08:58:49 AM 55.4130 -13.1980 300° West 492 566 34,000  Level FlightAware ADS-B
Mon 08:59:25 AM 55.4470 -13.3050 299° West 492 566 34,000  Level FlightAware ADS-B
Mon 09:00:01 AM 55.4810 -13.4130 299° West 492 566 34,000  Level FlightAware ADS-B
Mon 09:00:37 AM 55.5150 -13.5200 299° West 492 566 34,000  Level FlightAware ADS-B
Mon 09:01:14 AM 55.5490 -13.6310 298° West 492 566 34,000  Level FlightAware ADS-B
Mon 09:01:50 AM 55.5830 -13.7390 299° West 492 566 34,000  Level FlightAware ADS-B
Mon 09:02:27 AM 55.6180 -13.8500 299° West 492 566 34,000  Level FlightAware ADS-B
Mon 09:03:03 AM 55.6510 -13.9580 298° West 492 566 34,000  Level FlightAware ADS-B
Mon 09:03:41 AM 55.6870 -14.0720 299° West 492 566 34,000  Level FlightAware ADS-B
Mon 09:04:17 AM 55.7210 -14.1800 299° West 492 566 34,000  Level FlightAware ADS-B
Mon 09:04:53 AM 55.7550 -14.2880 299° West 492 566 34,000  Level FlightAware ADS-B
Mon 09:05:29 AM 55.7880 -14.3960 299° West 492 566 34,000  Level FlightAware ADS-B
Mon 09:06:05 AM 55.8220 -14.5050 299° West 492 566 34,000  Level FlightAware ADS-B
Mon 09:06:41 AM 55.8560 -14.6130 299° West 492 566 34,000  Level FlightAware ADS-B
Mon 09:07:17 AM 55.8900 -14.7220 299° West 492 566 34,000  Level FlightAware ADS-B
Mon 09:07:53 AM 55.9230 -14.8300 299° West 492 566 34,000 85 Level FlightAware ADS-B
Mon 09:10:00 AM 56.0259 -15.2713 293° West  Level FlightAware Approximate
Mon 09:11:00 AM 56.0739 -15.4806 292° West  Level FlightAware Approximate
Mon 09:12:00 AM 56.1216 -15.6904 292° West  Level FlightAware Approximate
Mon 09:13:00 AM 56.1690 -15.9007 292° West  Level FlightAware Approximate
Mon 09:14:00 AM 56.2159 -16.1115 292° West  Level FlightAware Approximate
Mon 09:15:00 AM 56.2626 -16.3229 292° West  Level FlightAware Approximate
Mon 09:16:00 AM 56.3088 -16.5348 292° West  Level FlightAware Approximate
Mon 09:17:00 AM 56.3547 -16.7472 291° West  Level FlightAware Approximate
Mon 09:18:00 AM 56.4003 -16.9601 291° West  Level FlightAware Approximate
Mon 09:19:00 AM 56.4454 -17.1735 291° West  Level FlightAware Approximate
Mon 09:20:00 AM 56.4902 -17.3874 291° West  Level FlightAware Approximate
Mon 09:21:00 AM 56.5347 -17.6018 291° West  Level FlightAware Approximate
Mon 09:22:00 AM 56.5787 -17.8167 290° West  Level FlightAware Approximate
Mon 09:23:00 AM 56.6224 -18.0322 290° West  Level FlightAware Approximate
Mon 09:24:00 AM 56.6657 -18.2481 290° West  Level FlightAware Approximate
Mon 09:25:00 AM 56.7087 -18.4645 290° West  Level FlightAware Approximate
Mon 09:26:00 AM 56.7513 -18.6814 290° West  Level FlightAware Approximate
Mon 09:27:00 AM 56.7935 -18.8988 290° West  Level FlightAware Approximate
Mon 09:28:00 AM 56.8353 -19.1166 289° West  Level FlightAware Approximate
Mon 09:29:00 AM 56.8767 -19.3350 289° West  Level FlightAware Approximate
Mon 09:30:00 AM 56.9178 -19.5539 289° West  Level FlightAware Approximate
Mon 09:30:43 AM 57.0000 -20.0000 285° West 491 565 36,000  Level ETMS Enhanced Traffic Management System
Mon 09:31:00 AM 56.9584 -19.7732 289° West  Level FlightAware Approximate
Mon 09:32:00 AM 56.9980 -19.9893 289° West  Level FlightAware Approximate
Mon 09:33:00 AM 57.0289 -20.2104 284° West  Level FlightAware Approximate
Mon 09:34:00 AM 57.0588 -20.4320 284° West  Level FlightAware Approximate
Mon 09:35:00 AM 57.0884 -20.6540 284° West  Level FlightAware Approximate
Mon 09:36:00 AM 57.2315 -21.7075 283° West 491 565 36,000  Level FlightAware Transoceanic
Mon 09:37:00 AM 57.2627 -21.9531 283° West 491 565 36,000  Level FlightAware Transoceanic
Mon 09:38:00 AM 57.2934 -22.1991 283° West 491 565 36,000  Level FlightAware Transoceanic
Mon 09:39:00 AM 57.3236 -22.4456 283° West 491 565 36,000  Level FlightAware Transoceanic
Mon 09:40:00 AM 57.3533 -22.6924 282° West 491 565 36,000  Level FlightAware Transoceanic
Mon 09:41:00 AM 57.3825 -22.9397 282° West 491 565 36,000  Level FlightAware Transoceanic
Mon 09:42:00 AM 57.4113 -23.1873 282° West 491 565 36,000  Level FlightAware Transoceanic
Mon 09:43:00 AM 57.4396 -23.4354 282° West 491 565 36,000  Level FlightAware Transoceanic
Mon 09:44:00 AM 57.4673 -23.6838 282° West 491 565 36,000  Level FlightAware Transoceanic
Mon 09:45:00 AM 57.4946 -23.9326 281° West 491 565 36,000  Level FlightAware Transoceanic
Mon 09:46:00 AM 57.5214 -24.1817 281° West 491 565 36,000  Level FlightAware Transoceanic
Mon 09:47:00 AM 57.5477 -24.4312 281° West 491 565 36,000  Level FlightAware Transoceanic
Mon 09:48:00 AM 57.5736 -24.6811 281° West 491 565 36,000  Level FlightAware Transoceanic
Mon 09:49:00 AM 57.5989 -24.9313 281° West 491 565 36,000  Level FlightAware Transoceanic
Mon 09:50:00 AM 57.6237 -25.1819 280° West 491 565 36,000  Level FlightAware Transoceanic
Mon 09:51:00 AM 57.6480 -25.4328 280° West 491 565 36,000  Level FlightAware Transoceanic
Mon 09:52:00 AM 57.6719 -25.6841 280° West 491 565 36,000  Level FlightAware Transoceanic
Mon 09:53:00 AM 57.6952 -25.9356 280° West 491 565 36,000  Level FlightAware Transoceanic
Mon 09:54:00 AM 57.7181 -26.1875 280° West 491 565 36,000  Level FlightAware Transoceanic
Mon 09:55:00 AM 57.7404 -26.4397 279° West 491 565 36,000  Level FlightAware Transoceanic
Mon 09:56:00 AM 57.7622 -26.6922 279° West 491 565 36,000  Level FlightAware Transoceanic
Mon 09:57:00 AM 57.7836 -26.9451 279° West 491 565 36,000  Level FlightAware Transoceanic
Mon 09:58:00 AM 57.8044 -27.1982 279° West 491 565 36,000  Level FlightAware Transoceanic
Mon 09:59:00 AM 57.8247 -27.4516 278° West 491 565 36,000  Level FlightAware Transoceanic
Mon 10:00:00 AM 57.8445 -27.7052 278° West 491 565 36,000  Level FlightAware Transoceanic
Mon 10:01:00 AM 57.8638 -27.9592 278° West 491 565 36,000  Level FlightAware Transoceanic
Mon 10:02:00 AM 57.8827 -28.2134 278° West 491 565 36,000  Level FlightAware Transoceanic
Mon 10:03:00 AM 57.9010 -28.4679 278° West 491 565 36,000  Level FlightAware Transoceanic
Mon 10:04:00 AM 57.9187 -28.7227 277° West 491 565 36,000  Level FlightAware Transoceanic
Mon 10:05:00 AM 57.9360 -28.9777 277° West 491 565 36,000  Level FlightAware Transoceanic
Mon 10:06:00 AM 57.9528 -29.2329 277° West 491 565 36,000  Level FlightAware Transoceanic
Mon 10:07:00 AM 57.9690 -29.4884 277° West 491 565 36,000  Level FlightAware Transoceanic
Mon 10:08:00 AM 57.9848 -29.7441 277° West 491 565 36,000  Level FlightAware Transoceanic
Mon 10:09:00 AM 57.9986 -29.9770 277° West  Level FlightAware Approximate
Mon 10:10:00 AM 58.0121 -30.2101 276° West  Level FlightAware Approximate
Mon 10:11:00 AM 58.0053 -30.1879 273° West  Level FlightAware Approximate
Mon 10:12:00 AM 58.0116 -30.4217 273° West  Level FlightAware Approximate
Mon 10:13:00 AM 58.0174 -30.6555 273° West  Level FlightAware Approximate
Mon 10:14:00 AM 58.0228 -30.8894 273° West  Level FlightAware Approximate
Mon 10:15:00 AM 58.0277 -31.1234 272° West  Level FlightAware Approximate
Mon 10:16:00 AM 58.0323 -31.3574 272° West  Level FlightAware Approximate
Mon 10:17:00 AM 58.0384 -31.5913 273° West  Level FlightAware Approximate
Mon 10:18:00 AM 58.0449 -31.8253 273° West  Level FlightAware Approximate
Mon 10:19:00 AM 58.0509 -32.0593 273° West  Level FlightAware Approximate
Mon 10:20:00 AM 58.0564 -32.2934 273° West  Level FlightAware Approximate
Mon 10:21:00 AM 58.0616 -32.5276 272° West  Level FlightAware Approximate
Mon 10:22:00 AM 58.0663 -32.7618 272° West  Level FlightAware Approximate
Mon 10:23:00 AM 58.0706 -32.9962 272° West  Level FlightAware Approximate
Mon 10:24:00 AM 58.0745 -33.2305 272° West  Level FlightAware Approximate
Mon 10:25:00 AM 58.0779 -33.4649 272° West  Level FlightAware Approximate
Mon 10:26:00 AM 58.0809 -33.6994 271° West  Level FlightAware Approximate
Mon 10:27:00 AM 58.0835 -33.9338 271° West  Level FlightAware Approximate
Mon 10:28:00 AM 58.0856 -34.1684 271° West  Level FlightAware Approximate
Mon 10:29:00 AM 58.0873 -34.4029 271° West  Level FlightAware Approximate
Mon 10:30:00 AM 58.0886 -34.6375 271° West  Level FlightAware Approximate
Mon 10:31:00 AM 58.0894 -34.8720 270° West  Level FlightAware Approximate
Mon 10:32:00 AM 58.0898 -35.1066 270° West  Level FlightAware Approximate
Mon 10:33:00 AM 58.0898 -35.3412 270° West  Level FlightAware Approximate
Mon 10:34:00 AM 58.0894 -35.5758 270° West  Level FlightAware Approximate
Mon 10:35:00 AM 58.0885 -35.8103 270° West  Level FlightAware Approximate
Mon 10:36:00 AM 58.0872 -36.0449 269° West  Level FlightAware Approximate
Mon 10:36:33 AM 58.1000 -36.4833 268° West 480 552 36,000  Level Gander Center
Mon 10:37:00 AM 58.0854 -36.2794 269° West  Level FlightAware Approximate
Mon 10:37:33 AM 58.1000 -36.7167 270° West 480 552 36,000  Level Gander Center
Mon 10:38:00 AM 58.0833 -36.5139 269° West  Level FlightAware Approximate
Mon 10:38:33 AM 58.0833 -36.9833 263° West 480 552 36,000  Level Gander Center
Mon 10:39:00 AM 58.0807 -36.7484 269° West  Level FlightAware Approximate
Mon 10:39:33 AM 58.0833 -37.2167 270° West 480 552 36,000  Level Gander Center
Mon 10:40:00 AM 58.0776 -36.9829 269° West  Level FlightAware Approximate
Mon 10:40:33 AM 58.0833 -37.4500 270° West 470 541 36,000  Level Gander Center
Mon 10:41:00 AM 58.0742 -37.2173 268° West  Level FlightAware Approximate
Mon 10:41:33 AM 58.0667 -37.7167 263° West 470 541 36,000  Level Gander Center
Mon 10:42:00 AM 58.0703 -37.4516 268° West  Level FlightAware Approximate
Mon 10:42:33 AM 58.0667 -37.9500 270° West 470 541 36,000  Level Gander Center
Mon 10:44:00 AM 58.0577 -38.2968 267° West  Level FlightAware Approximate
Mon 10:45:33 AM 58.0500 -38.6833 267° West 470 541 36,000  Level Gander Center
Mon 10:46:33 AM 58.0500 -38.9167 270° West 460 529 36,000  Level Gander Center
Mon 10:47:33 AM 58.0333 -39.1500 264° West 460 529 36,000  Level Gander Center
Mon 10:48:00 AM 58.0300 -39.2616 264° West  Level Estimated
Mon 10:48:33 AM 58.0333 -39.3833 270° West 460 529 36,000  Level Gander Center
Mon 10:49:33 AM 58.0167 -39.6167 262° West 450 518 36,000  Level Gander Center
Mon 10:50:33 AM 58.0000 -39.8667 263° West 450 518 36,000  Level Gander Center
Mon 10:51:00 AM 58.0013 -39.9680 267° West  Level FlightAware Approximate
Mon 10:51:33 AM 57.9833 -40.1000 262° West 450 518 36,000  Level Gander Center
Mon 10:52:33 AM 57.9833 -40.3333 270° West 450 518 36,000  Level Gander Center
Mon 10:53:33 AM 57.9667 -40.5667 262° West 450 518 36,000  Level Gander Center
Mon 10:54:33 AM 57.9500 -40.7667 261° West 450 518 36,000  Level Gander Center
Mon 10:55:33 AM 57.9333 -41.0000 262° West 440 506 36,000  Level Gander Center
Mon 10:56:33 AM 57.9167 -41.2500 263° West 440 506 36,000  Level Gander Center
Mon 10:57:33 AM 57.9000 -41.4833 262° West 440 506 36,000  Level Gander Center
Mon 10:58:33 AM 57.9000 -41.6667 270° West 440 506 36,000  Level Gander Center
Mon 10:59:33 AM 57.8833 -41.9000 262° West 440 506 36,000  Level Gander Center
Mon 11:00:33 AM 57.8667 -42.1500 263° West 440 506 36,000  Level Gander Center
Mon 11:01:33 AM 57.8500 -42.3833 262° West 440 506 36,000  Level Gander Center
Mon 11:02:33 AM 57.8333 -42.5833 261° West 440 506 36,000  Level Gander Center
Mon 11:03:33 AM 57.8167 -42.8167 262° West 440 506 36,000  Level Gander Center
Mon 11:04:33 AM 57.7833 -43.0500 255° West 440 506 36,000  Level Gander Center
Mon 11:05:33 AM 57.7667 -43.2833 262° West 440 506 36,000  Level Gander Center
Mon 11:06:33 AM 57.7500 -43.5167 262° West 440 506 36,000  Level Gander Center
Mon 11:07:33 AM 57.7333 -43.7167 261° West 440 506 36,000  Level Gander Center
Mon 11:08:33 AM 57.7167 -43.9500 262° West 440 506 36,000  Level Gander Center
Mon 11:09:33 AM 57.6833 -44.1833 255° West 440 506 36,000  Level Gander Center
Mon 11:10:33 AM 57.6667 -44.4167 262° West 440 506 36,000  Level Gander Center
Mon 11:11:33 AM 57.6500 -44.6167 261° West 440 506 36,000  Level Gander Center
Mon 11:12:33 AM 57.6167 -44.8500 255° West 440 506 36,000  Level Gander Center
Mon 11:13:33 AM 57.6000 -45.0833 263° West 440 506 36,000  Level Gander Center
Mon 11:14:33 AM 57.5833 -45.3167 263° West 440 506 36,000  Level Gander Center
Mon 11:15:33 AM 57.5500 -45.5167 253° West 440 506 36,000  Level Gander Center
Mon 11:16:33 AM 57.5333 -45.7500 263° West 440 506 36,000  Level Gander Center
Mon 11:17:33 AM 57.5167 -45.9833 263° West 440 506 36,000  Level Gander Center
Mon 11:18:33 AM 57.4833 -46.1833 253° West 430 495 36,000  Level Gander Center
Mon 11:19:33 AM 57.4500 -46.4167 255° West 430 495 36,000  Level Gander Center
Mon 11:20:33 AM 57.4333 -46.6333 262° West 430 495 36,000  Level Gander Center
Mon 11:21:33 AM 57.4000 -46.8333 253° West 430 495 36,000  Level Gander Center
Mon 11:22:33 AM 57.3833 -47.0667 263° West 430 495 36,000  Level Gander Center
Mon 11:23:33 AM 57.3500 -47.2667 253° West 430 495 36,000  Level Gander Center
Mon 11:24:33 AM 57.3333 -47.5000 263° West 430 495 36,000  Level Gander Center
Mon 11:25:33 AM 57.3167 -47.7000 261° West 430 495 36,000  Level Gander Center
Mon 11:26:33 AM 57.2833 -47.9167 254° West 430 495 36,000  Level Gander Center
Mon 11:27:33 AM 57.2500 -48.1167 253° West 430 495 36,000  Level Gander Center
Mon 11:28:33 AM 57.2333 -48.3500 263° West 430 495 36,000  Level Gander Center
Mon 11:29:33 AM 57.2000 -48.5500 253° West 430 495 36,000  Level Gander Center
Mon 11:30:33 AM 57.1667 -48.7667 254° West 430 495 36,000  Level Gander Center
Mon 11:31:33 AM 57.1333 -48.9667 253° West 420 483 36,000  Level Gander Center
Mon 11:34:00 AM 57.0928 -49.2886 257° West  Level FlightAware Approximate
Mon 11:34:33 AM 57.0667 -49.6167 257° West 420 483 36,000  Level Gander Center
Mon 11:35:33 AM 57.0333 -49.8167 253° West 420 483 36,000  Level Gander Center
Mon 11:36:33 AM 57.0000 -50.0000 252° West 420 483 36,000  Level Gander Center
Mon 11:37:13 AM 56.9667 -50.1333 245° Southwest 420 483 36,000  Level Gander Center
Mon 11:38:13 AM 56.9333 -50.3333 253° West 420 483 36,000  Level Gander Center
Mon 11:40:00 AM 56.8643 -50.7257 252° West  Level FlightAware Approximate
Mon 11:47:00 AM 56.5748 -52.2472 251° West  Level FlightAware Approximate
Mon 11:48:00 AM 56.5314 -52.4623 250° West  Level FlightAware Approximate
Mon 11:49:00 AM 56.4877 -52.6769 250° West  Level FlightAware Approximate
Mon 11:50:00 AM 56.4436 -52.8910 250° West  Level FlightAware Approximate
Mon 11:51:00 AM 56.3991 -53.1046 249° West  Level FlightAware Approximate
Mon 11:52:00 AM 56.3542 -53.3177 249° West  Level FlightAware Approximate
Mon 11:52:25 AM 56.4000 -53.1500 248° West 410 472 36,000  Level Gander Center
Mon 11:53:00 AM 56.3090 -53.5303 249° West  Level FlightAware Approximate
Mon 11:53:25 AM 56.3500 -53.3500 246° West 410 472 36,000  Level Gander Center
Mon 11:54:00 AM 56.2634 -53.7424 249° West  Level FlightAware Approximate
Mon 11:54:25 AM 56.3167 -53.5667 255° West 410 472 36,000  Level Gander Center
Mon 11:55:00 AM 56.2175 -53.9539 249° West  Level FlightAware Approximate
Mon 11:55:25 AM 56.2833 -53.7500 252° West 410 472 36,000  Level Gander Center
Mon 11:56:00 AM 56.1712 -54.1650 249° West  Level FlightAware Approximate
Mon 11:56:25 AM 56.2333 -53.9500 246° West 410 472 36,000  Level Gander Center
Mon 11:57:00 AM 56.1245 -54.3756 248° West  Level FlightAware Approximate
Mon 11:57:25 AM 56.2000 -54.1333 252° West 410 472 36,000  Level Gander Center
Mon 11:58:25 AM 56.1667 -54.3167 252° West 410 472 36,000  Level Gander Center
Mon 11:59:25 AM 56.1000 -54.5167 239° Southwest 400 460 36,000  Level Gander Center
Mon 12:01:00 PM 56.0034 -54.9176 247° West  Level FlightAware Approximate
Mon 12:08:00 PM 55.6679 -56.3720 248° West  Level FlightAware Approximate
Mon 12:08:25 PM 55.7333 -56.1167 232° Southwest 390 449 36,000  Level Gander Center
Mon 12:09:00 PM 55.6188 -56.5779 247° West  Level FlightAware Approximate
Mon 12:09:25 PM 55.6833 -56.3333 248° West 390 449 36,200  Level Gander Center
Mon 12:10:00 PM 55.5694 -56.7832 247° West  Level FlightAware Approximate
Mon 12:10:25 PM 55.6667 -56.4833 259° West 390 449 36,700  Level Gander Center
Mon 12:11:00 PM 55.5196 -56.9881 247° West  Level FlightAware Approximate
Mon 12:11:25 PM 55.6167 -56.7000 248° West 400 460 37,200  Level Gander Center
Mon 12:12:00 PM 55.4499 -57.1695 232° Southwest  Level FlightAware Approximate
Mon 12:12:25 PM 55.5667 -56.8833 244° Southwest 410 472 37,700  Level Gander Center
Mon 12:13:00 PM 55.3727 -57.3452 232° Southwest  Level FlightAware Approximate
Mon 12:13:25 PM 55.5333 -57.0667 252° West 420 483 38,000  Level Gander Center
Mon 12:14:25 PM 55.4833 -57.2667 246° West 420 483 38,000  Level Gander Center
Mon 12:15:25 PM 55.4667 -57.4500 261° West 420 483 38,000  Level Gander Center
Mon 12:16:25 PM 55.4000 -57.6333 237° Southwest 420 483 38,000  Level Gander Center
Mon 12:17:25 PM 55.3667 -57.8500 255° West 420 483 38,000  Level Gander Center
Mon 12:18:25 PM 55.3333 -58.0167 251° West 420 483 38,000  Level Gander Center
Mon 12:19:25 PM 55.2833 -58.2000 244° Southwest 420 483 38,000  Level Gander Center
Mon 12:20:25 PM 55.2333 -58.3833 245° Southwest 410 472 38,000  Level Gander Center
Mon 12:21:25 PM 55.1833 -58.5833 246° West 410 472 38,000  Level Gander Center
Mon 12:22:25 PM 55.1500 -58.7667 252° West 410 472 38,000  Level Gander Center
Mon 12:23:25 PM 55.1000 -58.9500 245° Southwest 410 472 38,000  Level Gander Center
Mon 12:24:25 PM 55.0667 -59.1167 251° West 410 472 38,000  Level Gander Center
Mon 12:25:25 PM 55.0167 -59.3333 248° West 410 472 38,000  Level Gander Center
Mon 12:26:25 PM 54.9667 -59.5000 242° Southwest 410 472 38,000  Level Gander Center
Mon 12:27:25 PM 54.9167 -59.6833 245° Southwest 410 472 38,000  Level Gander Center
Mon 12:28:25 PM 54.8833 -59.8667 253° West 410 472 38,000  Level Gander Center
Mon 12:29:25 PM 54.8333 -60.0333 243° Southwest 400 460 38,000  Level Gander Center
Mon 12:30:25 PM 54.8000 -60.2167 253° West 400 460 38,000  Level Gander Center
Mon 12:31:25 PM 54.7500 -60.3833 243° Southwest 390 449 38,000  Level Gander Center
Mon 12:32:25 PM 54.7000 -60.5667 245° Southwest 400 460 38,000  Level Gander Center
Mon 12:33:25 PM 54.6500 -60.7333 243° Southwest 400 460 38,000  Level Gander Center
Mon 12:34:25 PM 54.6000 -60.9000 243° Southwest 400 460 38,000  Level Gander Center
Mon 12:35:25 PM 54.5667 -61.0833 253° West 400 460 38,000  Level Gander Center
Mon 12:36:25 PM 54.5167 -61.2833 247° West 400 460 38,000  Level Gander Center
Mon 12:37:25 PM 54.4667 -61.4500 243° Southwest 400 460 38,000  Level Gander Center
Mon 12:38:25 PM 54.4167 -61.6333 245° Southwest 400 460 38,000  Level Gander Center
Mon 12:39:25 PM 54.3667 -61.8000 243° Southwest 410 472 38,000  Level Gander Center
Mon 12:40:25 PM 54.3167 -61.9667 243° Southwest 410 472 38,000  Level Gander Center
Mon 12:41:25 PM 54.2667 -62.1333 243° Southwest 410 472 38,000  Level Gander Center
Mon 12:42:25 PM 54.2333 -62.3167 253° West 410 472 38,000  Level Gander Center
Mon 12:43:25 PM 54.1833 -62.5167 247° West 410 472 38,000  Level Gander Center
Mon 12:44:25 PM 54.1167 -62.6833 236° Southwest 410 472 38,000  Level Gander Center
Mon 12:45:25 PM 54.0667 -62.8500 243° Southwest 410 472 38,000  Level Gander Center
Mon 12:46:25 PM 54.0167 -63.0167 243° Southwest 410 472 38,000  Level Gander Center
Mon 12:47:25 PM 53.9667 -63.1833 243° Southwest 410 472 38,000  Level Gander Center
Mon 12:48:25 PM 53.9167 -63.3833 247° West 420 483 38,000  Level Gander Center
Mon 12:49:25 PM 53.8833 -63.5500 251° West 420 483 38,000  Level Gander Center
Mon 12:50:25 PM 53.8167 -63.7167 236° Southwest 420 483 38,000  Level Gander Center
Mon 12:51:25 PM 53.7667 -63.9167 247° West 420 483 38,000  Level Gander Center
Mon 12:52:25 PM 53.7167 -64.0833 243° Southwest 420 483 38,000  Level Gander Center
Mon 12:53:25 PM 53.6667 -64.2667 245° Southwest 430 495 38,000  Level Gander Center
Mon 12:54:25 PM 53.6000 -64.4333 236° Southwest 430 495 38,000  Level Gander Center
Mon 12:55:25 PM 53.5500 -64.6333 247° West 430 495 38,000  Level Gander Center
Mon 12:56:25 PM 53.4833 -64.8000 236° Southwest 430 495 38,000  Level Gander Center
Mon 12:57:25 PM 53.4333 -64.9833 245° Southwest 430 495 38,000  Level Gander Center
Mon 12:58:25 PM 53.3833 -65.1500 243° Southwest 440 506 38,000  Level Gander Center
Mon 12:59:25 PM 53.3167 -65.3333 239° Southwest 440 506 38,000  Level Gander Center
Mon 01:00:12 PM 53.2833 -65.4333 241° Southwest 440 506 38,000  Level Montreal Center
Mon 01:01:25 PM 53.2000 -65.7167 244° Southwest 450 518 38,000  Level Gander Center
Mon 01:02:25 PM 53.1333 -65.8833 236° Southwest 450 518 38,000  Level Gander Center
Mon 01:03:12 PM 53.0833 -65.9833 230° Southwest 450 518 38,000  Level Montreal Center
Mon 01:04:12 PM 53.0333 -66.1667 246° West 450 518 38,000  Level Montreal Center
Mon 01:05:12 PM 52.9667 -66.3500 239° Southwest 460 529 38,000  Level Montreal Center
Mon 01:06:12 PM 52.9167 -66.5333 246° West 460 529 38,000  Level Montreal Center
Mon 01:07:12 PM 52.8500 -66.7500 243° Southwest 460 529 38,000  Level Montreal Center
Mon 01:08:12 PM 52.7833 -66.9333 239° Southwest 460 529 38,000  Level Montreal Center
Mon 01:09:12 PM 52.7167 -67.1167 239° Southwest 470 541 38,000  Level Montreal Center
Mon 01:10:12 PM 52.6500 -67.2833 237° Southwest 470 541 38,000  Level Montreal Center
Mon 01:11:12 PM 52.5833 -67.5000 243° Southwest 470 541 38,000  Level Montreal Center
Mon 01:12:12 PM 52.5333 -67.6833 246° West 480 552 38,000  Level Montreal Center
Mon 01:13:12 PM 52.4500 -67.8500 231° Southwest 480 552 38,000  Level Montreal Center
Mon 01:14:12 PM 52.3833 -68.0667 243° Southwest 480 552 38,000  Level Montreal Center
Mon 01:15:12 PM 52.3333 -68.2333 244° Southwest 480 552 38,000  Level Montreal Center
Mon 01:16:12 PM 52.2500 -68.4500 238° Southwest 490 564 38,000  Level Montreal Center
Mon 01:17:12 PM 52.1833 -68.6167 237° Southwest 480 552 38,000  Level Montreal Center
Mon 01:18:12 PM 52.1167 -68.8333 243° Southwest 480 552 38,000  Level Montreal Center
Mon 01:19:12 PM 52.0333 -69.0333 236° Southwest 490 564 38,000  Level Montreal Center
Mon 01:20:12 PM 51.9833 -69.2333 248° West 490 564 38,000  Level Montreal Center
Mon 01:21:12 PM 51.9500 -69.4333 255° West 490 564 38,000  Level Montreal Center
Mon 01:22:12 PM 51.8833 -69.6333 242° Southwest 490 564 38,000  Level Montreal Center
Mon 01:23:12 PM 51.8333 -69.8333 248° West 490 564 38,000  Level Montreal Center
Mon 01:24:12 PM 51.7667 -70.0333 242° Southwest 490 564 38,000  Level Montreal Center
Mon 01:25:12 PM 51.7167 -70.2333 248° West 490 564 38,000  Level Montreal Center
Mon 01:26:12 PM 51.6667 -70.4500 250° West 490 564 38,000  Level Montreal Center
Mon 01:27:12 PM 51.6000 -70.6500 242° Southwest 490 564 38,000  Level Montreal Center
Mon 01:28:12 PM 51.5500 -70.8500 248° West 500 575 38,000  Level Montreal Center
Mon 01:29:12 PM 51.4833 -71.0667 244° Southwest 500 575 38,000  Level Montreal Center
Mon 01:30:12 PM 51.4333 -71.2667 248° West 490 564 38,000  Level Montreal Center
Mon 01:31:12 PM 51.3667 -71.4333 237° Southwest 490 564 38,000  Level Montreal Center
Mon 01:32:12 PM 51.3000 -71.6500 244° Southwest 490 564 38,000  Level Montreal Center
Mon 01:33:12 PM 51.2500 -71.8500 248° West 490 564 38,000  Level Montreal Center
Mon 01:34:12 PM 51.1833 -72.0667 244° Southwest 490 564 38,000  Level Montreal Center
Mon 01:35:12 PM 51.1167 -72.2333 238° Southwest 490 564 38,000  Level Montreal Center
Mon 01:36:12 PM 51.0667 -72.4500 250° West 500 575 38,000  Level Montreal Center
Mon 01:37:12 PM 51.0000 -72.6500 242° Southwest 500 575 38,000  Level Montreal Center
Mon 01:38:12 PM 50.9333 -72.8333 240° Southwest 500 575 38,000  Level Montreal Center
Mon 01:39:12 PM 50.8833 -73.0500 250° West 500 575 38,000  Level Montreal Center
Mon 01:40:12 PM 50.8167 -73.2500 242° Southwest 500 575 38,000  Level Montreal Center
Mon 01:41:12 PM 50.7500 -73.4333 240° Southwest 500 575 38,000  Level Montreal Center
Mon 01:42:12 PM 50.6833 -73.6333 242° Southwest 500 575 38,000  Level Montreal Center
Mon 01:43:12 PM 50.6333 -73.8500 250° West 500 575 38,000  Level Montreal Center
Mon 01:44:12 PM 50.5667 -74.0333 240° Southwest 500 575 38,000  Level Montreal Center
Mon 01:45:12 PM 50.5000 -74.2500 244° Southwest 500 575 38,000  Level Montreal Center
Mon 01:46:12 PM 50.4333 -74.4333 240° Southwest 500 575 38,000  Level Montreal Center
Mon 01:47:12 PM 50.3667 -74.6167 240° Southwest 500 575 38,000  Level Montreal Center
Mon 01:48:12 PM 50.3000 -74.8000 240° Southwest 500 575 38,000  Level Montreal Center
Mon 01:49:12 PM 50.2167 -75.0167 239° Southwest 500 575 38,000  Level Montreal Center
Mon 01:50:12 PM 50.1667 -75.2000 247° West 500 575 38,000  Level Montreal Center
Mon 01:51:12 PM 50.1000 -75.3833 241° Southwest 500 575 38,000  Level Montreal Center
Mon 01:52:12 PM 50.0167 -75.5667 235° Southwest 500 575 38,000  Level Montreal Center
Mon 01:53:12 PM 49.9667 -75.7500 247° West 490 564 38,000  Level Montreal Center
Mon 01:54:12 PM 49.8833 -75.9667 239° Southwest 490 564 38,000  Level Montreal Center
Mon 01:55:12 PM 49.8333 -76.1500 247° West 490 564 38,000  Level Montreal Center
Mon 01:56:12 PM 49.7667 -76.3333 241° Southwest 490 564 38,000  Level Montreal Center
Mon 01:57:12 PM 49.7000 -76.5167 241° Southwest 490 564 38,000  Level Montreal Center
Mon 01:58:12 PM 49.6333 -76.7167 243° Southwest 490 564 38,000  Level Montreal Center
Mon 01:59:12 PM 49.5667 -76.9000 241° Southwest 490 564 38,000  Level Montreal Center
Mon 02:00:12 PM 49.5000 -77.0833 241° Southwest 490 564 38,000  Level Montreal Center
Mon 02:01:12 PM 49.4333 -77.2667 241° Southwest 490 564 38,000  Level Montreal Center
Mon 02:02:12 PM 49.3667 -77.4333 238° Southwest 490 564 38,000  Level Montreal Center
Mon 02:03:12 PM 49.2833 -77.6167 235° Southwest 490 564 38,000  Level Montreal Center
Mon 02:04:12 PM 49.2167 -77.8000 241° Southwest 490 564 38,000  Level Montreal Center
Mon 02:05:12 PM 49.1500 -77.9667 239° Southwest 490 564 38,000  Level Montreal Center
Mon 02:06:12 PM 49.0833 -78.1667 243° Southwest 490 564 38,000  Level Montreal Center
Mon 02:07:12 PM 49.0167 -78.3167 236° Southwest 490 564 38,000  Level Montreal Center
Mon 02:08:12 PM 48.9333 -78.5333 240° Southwest 490 564 38,000  Level Montreal Center
Mon 02:09:12 PM 48.8833 -78.7000 246° West 480 552 38,000  Level Montreal Center
Mon 02:10:12 PM 48.8167 -78.8833 241° Southwest 480 552 38,000  Level Montreal Center
Mon 02:11:12 PM 48.7333 -79.0500 233° Southwest 480 552 38,000  Level Montreal Center
Mon 02:12:12 PM 48.6667 -79.2000 236° Southwest 480 552 38,000  Level Montreal Center
Mon 02:13:12 PM 48.6000 -79.4000 243° Southwest 480 552 38,000  Level Montreal Center
Mon 02:14:12 PM 48.5167 -79.5667 233° Southwest 480 552 38,000  Level Montreal Center
Mon 02:15:12 PM 48.4500 -79.7500 241° Southwest 480 552 38,000  Level Montreal Center
Mon 02:21:03 PM 48.0450 -80.7330 241° Southwest 482 555 38,000  Level FlightAware ADS-B
Mon 02:21:40 PM 48.0060 -80.8200 236° Southwest 482 555 38,000  Level FlightAware ADS-B
Mon 02:22:17 PM 47.9680 -80.9080 237° Southwest 482 555 38,000  Level FlightAware ADS-B
Mon 02:22:48 PM 47.9170 -81.0300 238° Southwest 480 552 38,000  Level FlightAware ADS-B
Mon 02:23:32 PM 47.8690 -81.1400 237° Southwest 479 551 38,000  Level FlightAware ADS-B
Mon 02:24:14 PM 47.8130 -81.2690 237° Southwest 480 552 38,000  Level FlightAware ADS-B
Mon 02:24:50 PM 47.7710 -81.3670 238° Southwest 481 554 38,000  Level FlightAware ADS-B
Mon 02:25:22 PM 47.7310 -81.4570 237° Southwest 482 555 38,000  Level FlightAware ADS-B
Mon 02:25:59 PM 47.6870 -81.5580 237° Southwest 482 555 38,000  Level FlightAware ADS-B
Mon 02:26:36 PM 47.6410 -81.6630 237° Southwest 482 555 38,000  Level FlightAware ADS-B
Mon 02:27:16 PM 47.5860 -81.7660 232° Southwest 489 563 38,000  Level FlightAware ADS-B
Mon 02:27:51 PM 47.5290 -81.8460 223° Southwest 492 566 38,000  Level FlightAware ADS-B
Mon 02:28:27 PM 47.4690 -81.9270 222° Southwest 492 566 38,000  Level FlightAware ADS-B
Mon 02:29:01 PM 47.4110 -82.0040 222° Southwest 492 566 38,000  Level FlightAware ADS-B
Mon 02:29:35 PM 47.3530 -82.0800 222° Southwest 492 566 38,000  Level FlightAware ADS-B
Mon 02:30:13 PM 47.2890 -82.1660 222° Southwest 491 565 38,000  Level FlightAware ADS-B
Mon 02:30:42 PM 47.2410 -82.2300 222° Southwest 491 565 38,000  Level FlightAware ADS-B
Mon 02:31:16 PM 47.1830 -82.3070 222° Southwest 491 565 38,000  Level FlightAware ADS-B
Mon 02:31:55 PM 47.1190 -82.3910 222° Southwest 490 564 38,000  Level FlightAware ADS-B
Mon 02:32:32 PM 47.0550 -82.4760 222° Southwest 490 564 38,000  Level FlightAware ADS-B
Mon 02:32:59 PM 47.0120 -82.5320 222° Southwest 490 564 38,000  Level FlightAware ADS-B
Mon 02:33:40 PM 46.9400 -82.6250 221° Southwest 490 564 38,000  Level FlightAware ADS-B
Mon 02:34:14 PM 46.8850 -82.6970 222° Southwest 490 564 38,000  Level FlightAware ADS-B
Mon 02:34:57 PM 46.8110 -82.7930 222° Southwest 489 563 38,000  Level FlightAware ADS-B
Mon 02:35:31 PM 46.7560 -82.8640 222° Southwest 490 564 38,000  Level FlightAware ADS-B
Mon 02:36:10 PM 46.6900 -82.9490 221° Southwest 490 564 38,000  Level FlightAware ADS-B
Mon 02:36:41 PM 46.6330 -83.0230 222° Southwest 491 565 38,000  Level FlightAware ADS-B
Mon 02:37:17 PM 46.5730 -83.0990 221° Southwest 493 567 38,000  Level FlightAware ADS-B
Mon 02:37:49 PM 46.5180 -83.1690 221° Southwest 492 566 38,000  Level FlightAware ADS-B
Mon 02:38:28 PM 46.4520 -83.2540 222° Southwest 492 566 38,000  Level FlightAware ADS-B
Mon 02:39:02 PM 46.3930 -83.3280 221° Southwest 492 566 38,000  Level FlightAware ADS-B
Mon 02:39:38 PM 46.3320 -83.4050 221° Southwest 493 567 38,000  Level FlightAware ADS-B
Mon 02:40:09 PM 46.2790 -83.4710 221° Southwest 492 566 38,000  Level FlightAware ADS-B
Mon 02:40:49 PM 46.2100 -83.5590 221° Southwest 491 565 38,000  Level FlightAware ADS-B
Mon 02:41:23 PM 46.1510 -83.6330 221° Southwest 491 565 38,000  Level FlightAware ADS-B
Mon 02:42:01 PM 46.0860 -83.7140 221° Southwest 491 565 38,000  Level FlightAware ADS-B
Mon 02:42:34 PM 46.0300 -83.7840 221° Southwest 491 565 38,000  Level FlightAware ADS-B
Mon 02:43:10 PM 45.9680 -83.8600 220° Southwest 490 564 38,000  Level FlightAware ADS-B
Mon 02:43:42 PM 45.9120 -83.9300 221° Southwest 489 563 38,000  Level FlightAware ADS-B
Mon 02:44:19 PM 45.8500 -84.0070 221° Southwest 489 563 38,000  Level FlightAware ADS-B
Mon 02:44:51 PM 45.7950 -84.0750 221° Southwest 489 563 38,000  Level FlightAware ADS-B
Mon 02:45:29 PM 45.7290 -84.1550 220° Southwest 487 560 38,000  Level FlightAware ADS-B
Mon 02:46:05 PM 45.6680 -84.2300 221° Southwest 488 562 38,000  Level FlightAware ADS-B
Mon 02:46:41 PM 45.6070 -84.3070 221° Southwest 485 558 38,000  Level FlightAware ADS-B
Mon 02:47:09 PM 45.5700 -84.3770 233° Southwest 477 549 38,000  Level FlightAware ADS-B
Mon 02:47:41 PM 45.5390 -84.4670 244° Southwest 475 547 38,000  Level FlightAware ADS-B
Mon 02:48:17 PM 45.5050 -84.5680 244° Southwest 475 547 38,000  Level FlightAware ADS-B
Mon 02:48:51 PM 45.4700 -84.6610 242° Southwest 480 552 38,000  Level FlightAware ADS-B
Mon 02:49:07 PM 45.4460 -84.6970 226° Southwest 485 558 38,000  Level FlightAware ADS-B
Mon 02:49:27 PM 45.4070 -84.7340 214° Southwest 492 566 38,000  Level FlightAware ADS-B
Mon 02:49:42 PM 45.3760 -84.7490 199° South 498 573 38,000  Level FlightAware ADS-B
Mon 02:50:14 PM 45.3050 -84.7700 192° South 499 574 38,000  Level FlightAware ADS-B
Mon 02:50:51 PM 45.2200 -84.7930 191° South 499 574 38,000  Level FlightAware ADS-B
Mon 02:51:25 PM 45.1440 -84.8140 191° South 499 574 38,000  Level FlightAware ADS-B
Mon 02:52:00 PM 45.0640 -84.8360 191° South 498 573 38,000  Level FlightAware ADS-B
Mon 02:52:35 PM 44.9830 -84.8590 191° South 497 572 38,000  Level FlightAware ADS-B
Mon 02:53:11 PM 44.9010 -84.8820 191° South 497 572 38,000  Level FlightAware ADS-B
Mon 02:53:45 PM 44.8260 -84.9040 192° South 490 564 38,000  Level FlightAware ADS-B
Mon 02:54:23 PM 44.7530 -84.9240 191° South 487 560 38,000  Level FlightAware ADS-B
Mon 02:54:58 PM 44.6680 -84.9480 191° South 477 549 38,000  Level FlightAware ADS-B
Mon 02:55:29 PM 44.6010 -84.9670 191° South 477 549 38,000 -171 Level FlightAware ADS-B
Mon 02:56:08 PM 44.5150 -84.9910 191° South 474 545 37,800 -500 Descending FlightAware ADS-B
Mon 02:56:41 PM 44.4460 -85.0100 191° South 468 539 37,400 -870 Descending FlightAware ADS-B
Mon 02:57:17 PM 44.3700 -85.0310 191° South 461 531 36,800 -930 Descending FlightAware ADS-B
Mon 02:57:52 PM 44.2970 -85.0510 191° South 456 525 36,300 -1,200 Descending FlightAware ADS-B
Mon 02:58:22 PM 44.2350 -85.0680 191° South 459 528 35,500 -1,217 Descending FlightAware ADS-B
Mon 02:59:01 PM 44.1540 -85.0900 191° South 460 529 34,900 -1,026 Descending FlightAware ADS-B
Mon 02:59:38 PM 44.0740 -85.1120 191° South 464 534 34,200 -1,029 Descending FlightAware ADS-B
Mon 03:00:11 PM 44.0070 -85.1300 191° South 466 536 33,700 -957 Descending FlightAware ADS-B
Mon 03:00:47 PM 43.9300 -85.1510 191° South 469 540 33,100 -930 Descending FlightAware ADS-B
Mon 03:01:22 PM 43.8540 -85.1720 191° South 472 543 32,600 -971 Descending FlightAware ADS-B
Mon 03:01:55 PM 43.7830 -85.1910 191° South 485 558 32,000 -522 Descending FlightAware ADS-B
Mon 03:02:31 PM 43.7010 -85.2130 191° South 496 571 32,000  Level FlightAware ADS-B
Mon 03:03:02 PM 43.6340 -85.2330 192° South 496 571 32,000  Level FlightAware ADS-B
Mon 03:03:41 PM 43.5490 -85.2670 196° South 490 564 32,000  Level FlightAware ADS-B
Mon 03:04:00 PM 43.5090 -85.2980 209° Southwest 485 558 32,000  Level FlightAware ADS-B
Mon 03:04:37 PM 43.4490 -85.3710 221° Southwest 479 551 32,000  Level FlightAware ADS-B
Mon 03:05:12 PM 43.4010 -85.4550 232° Southwest 477 549 32,000  Level FlightAware ADS-B
Mon 03:05:49 PM 43.3530 -85.5440 233° Southwest 476 548 32,000  Level FlightAware ADS-B
Mon 03:06:21 PM 43.3090 -85.6230 233° Southwest 476 548 32,000 -269 Level FlightAware ADS-B
Mon 03:06:56 PM 43.2650 -85.7020 233° Southwest 472 543 31,700 -1,417 Descending FlightAware ADS-B
Mon 03:07:33 PM 43.2140 -85.7930 232° Southwest 461 531 30,300 -2,250 Descending FlightAware ADS-B
Mon 03:08:08 PM 43.1700 -85.8720 233° Southwest 455 524 29,000 -2,206 Descending FlightAware ADS-B
Mon 03:08:41 PM 43.1280 -85.9480 233° Southwest 448 516 27,800 -2,087 Descending FlightAware ADS-B
Mon 03:09:17 PM 43.0870 -86.0210 232° Southwest 443 510 26,600 -2,167 Descending FlightAware ADS-B
Mon 03:09:53 PM 43.0380 -86.1070 232° Southwest 437 503 25,200 -2,333 Descending FlightAware ADS-B
Mon 03:10:29 PM 42.9940 -86.1850 232° Southwest 432 497 23,800 -2,250 Descending FlightAware ADS-B
Mon 03:10:57 PM 42.9600 -86.2450 232° Southwest 427 491 22,800 -2,154 Descending FlightAware ADS-B
Mon 03:11:47 PM 42.9020 -86.3470 232° Southwest 422 486 21,000 -1,909 Descending FlightAware ADS-B
Mon 03:12:25 PM 42.8570 -86.4270 233° Southwest 410 472 20,000 -811 Descending FlightAware ADS-B
Mon 03:13:01 PM 42.8130 -86.5010 231° Southwest 408 470 20,000  Level FlightAware ADS-B
Mon 03:13:33 PM 42.7750 -86.5670 232° Southwest 410 472 20,000 -706 Level FlightAware ADS-B
Mon 03:14:09 PM 42.7350 -86.6360 232° Southwest 400 460 19,200 -1,833 Descending FlightAware ADS-B
Mon 03:14:45 PM 42.6930 -86.7070 231° Southwest 387 445 17,800 -2,500 Descending FlightAware ADS-B
Mon 03:15:21 PM 42.6540 -86.7750 232° Southwest 382 440 16,200 -2,647 Descending FlightAware ADS-B
Mon 03:15:53 PM 42.6180 -86.8350 231° Southwest 381 438 14,800 -2,471 Descending FlightAware ADS-B
Mon 03:16:29 PM 42.5800 -86.9010 232° Southwest 374 430 13,400 -2,250 Descending FlightAware ADS-B
Mon 03:17:05 PM 42.5420 -86.9650 231° Southwest 367 422 12,100 -2,113 Descending FlightAware ADS-B
Mon 03:17:40 PM 42.5040 -87.0290 231° Southwest 362 417 10,900 -1,853 Descending FlightAware ADS-B
Mon 03:18:13 PM 42.4700 -87.0870 232° Southwest 355 409 10,000 -1,158 Descending FlightAware ADS-B
Mon 03:18:37 PM 42.4490 -87.1350 239° Southwest 353 406 9,800 -136 Descending FlightAware ADS-B
Mon 03:18:57 PM 42.4380 -87.1740 249° West 353 406 9,900 150 Climbing FlightAware ADS-B
Mon 03:19:17 PM 42.4270 -87.2140 250° West 353 406 9,900  Level FlightAware ADS-B
Mon 03:19:37 PM 42.4150 -87.2580 250° West 353 406 9,900  Level FlightAware ADS-B
Mon 03:19:57 PM 42.4040 -87.2980 250° West 353 406 9,900  Level FlightAware ADS-B
Mon 03:20:22 PM 42.3910 -87.3480 251° West 353 406 9,900  Level FlightAware ADS-B
Mon 03:20:41 PM 42.3790 -87.3900 249° West 353 406 9,900  Level FlightAware ADS-B
Mon 03:21:01 PM 42.3670 -87.4310 248° West 353 406 9,900  Level FlightAware ADS-B
Mon 03:21:17 PM 42.3580 -87.4650 250° West 352 405 9,900  Level FlightAware ADS-B
Mon 03:21:37 PM 42.3460 -87.5060 248° West 349 402 9,900  Level FlightAware ADS-B
Mon 03:21:45 PM 42.3400 -87.5210 242° Southwest 350 403 9,900  Level FlightAware ADS-B
Mon 03:22:07 PM 42.3170 -87.5570 229° Southwest 350 403 9,900  Level FlightAware ADS-B
Mon 03:22:27 PM 42.2910 -87.5850 219° Southwest 352 405 9,900  Level FlightAware ADS-B
Mon 03:22:47 PM 42.2660 -87.6120 219° Southwest 353 406 9,900  Level FlightAware ADS-B
Mon 03:22:59 PM 42.2510 -87.6280 218° Southwest 354 407 9,900  Level FlightAware ADS-B
Mon 03:23:19 PM 42.2270 -87.6530 218° Southwest 354 407 9,900  Level FlightAware ADS-B
Mon 03:23:37 PM 42.2010 -87.6800 218° Southwest 353 406 9,900  Level FlightAware ADS-B
Mon 03:23:57 PM 42.1770 -87.7050 218° Southwest 354 407 9,900  Level FlightAware ADS-B
Mon 03:24:09 PM 42.1600 -87.7220 217° Southwest 353 406 9,900  Level FlightAware ADS-B
Mon 03:24:31 PM 42.1320 -87.7520 218° Southwest 354 407 9,900  Level FlightAware ADS-B
Mon 03:24:47 PM 42.1120 -87.7750 220° Southwest 355 409 9,900  Level FlightAware ADS-B
Mon 03:24:55 PM 42.1040 -87.7910 236° Southwest 355 409 9,900  Level FlightAware ADS-B
Mon 03:25:07 PM 42.0960 -87.8140 245° Southwest 354 407 9,900  Level FlightAware ADS-B
Mon 03:25:15 PM 42.0930 -87.8320 257° West 355 409 9,900  Level FlightAware ADS-B
Mon 03:25:35 PM 42.0910 -87.8740 266° West 353 406 9,900  Level FlightAware ADS-B
Mon 03:25:55 PM 42.0910 -87.9190 270° West 354 407 9,900  Level FlightAware ADS-B
Mon 03:26:19 PM 42.0920 -87.9710 272° West 334 384 9,900  Level FlightAware ADS-B
Mon 03:26:40 PM 42.0920 -88.0110 270° West 313 360 9,900 -171 Level FlightAware ADS-B
Mon 03:26:54 PM 42.0920 -88.0380 270° West 300 345 9,800 -750 Descending FlightAware ADS-B
Mon 03:27:20 PM 42.0870 -88.0860 262° West 291 335 9,400 -1,043 Descending FlightAware ADS-B
Mon 03:27:40 PM 42.0810 -88.1200 257° West 287 330 9,000 -1,650 Descending FlightAware ADS-B
Mon 03:28:00 PM 42.0750 -88.1560 257° West 288 331 8,300 -1,867 Descending FlightAware ADS-B
Mon 03:28:25 PM 42.0680 -88.1980 257° West 281 323 7,600 -1,500 Descending FlightAware ADS-B
Mon 03:28:44 PM 42.0630 -88.2310 258° West 263 303 7,200 -1,125 Descending FlightAware ADS-B
Mon 03:28:57 PM 42.0600 -88.2510 259° West 254 292 7,000 -667 Descending FlightAware ADS-B
Mon 03:29:20 PM 42.0550 -88.2860 259° West 243 280 6,800 -686 Descending FlightAware ADS-B
Mon 03:29:32 PM 42.0510 -88.3030 252° West 240 276 6,600 -1,200 Descending FlightAware ADS-B
Mon 03:29:40 PM 42.0470 -88.3130 242° Southwest 237 273 6,400 -1,125 Descending FlightAware ADS-B
Mon 03:29:48 PM 42.0410 -88.3210 225° Southwest 233 268 6,300 -1,000 Descending FlightAware ADS-B
Mon 03:29:52 PM 42.0370 -88.3240 209° Southwest 231 266 6,200 -1,000 Descending FlightAware ADS-B
Mon 03:30:00 PM 42.0280 -88.3280 198° South 229 264 6,100 -1,125 Descending FlightAware ADS-B
Mon 03:30:08 PM 42.0210 -88.3290 186° South 228 262 5,900 -857 Descending FlightAware ADS-B
Mon 03:30:28 PM 41.9990 -88.3280 178° South 219 252 5,700 -643 Descending FlightAware ADS-B
Mon 03:30:36 PM 41.9920 -88.3260 168° South 215 247 5,600 -750 Descending FlightAware ADS-B
Mon 03:30:44 PM 41.9840 -88.3210 155° Southeast 211 243 5,500 -1,000 Descending FlightAware ADS-B
Mon 03:30:48 PM 41.9820 -88.3180 132° Southeast 208 239 5,400 -1,000 Descending FlightAware ADS-B
Mon 03:30:56 PM 41.9770 -88.3090 127° Southeast 203 234 5,300 -621 Descending FlightAware ADS-B
Mon 03:31:17 PM 41.9700 -88.2860 112° Southeast 194 223 5,100 -828 Descending FlightAware ADS-B
Mon 03:31:25 PM 41.9680 -88.2780 109° East 193 222 4,900 -1,111 Descending FlightAware ADS-B
Mon 03:31:44 PM 41.9680 -88.2530 90° East 192 221 4,600 -1,050 Descending FlightAware ADS-B
Mon 03:32:05 PM 41.9680 -88.2310 90° East 192 221 4,200 -1,167 Descending FlightAware ADS-B
Mon 03:32:20 PM 41.9680 -88.2110 90° East 190 219 3,900 -545 Descending FlightAware ADS-B
Mon 03:32:38 PM 41.9680 -88.1900 90° East 190 219 3,900  Level FlightAware ADS-B
Mon 03:33:00 PM 41.9680 -88.1640 90° East 191 220 3,900 -500 Level FlightAware ADS-B
Mon 03:33:26 PM 41.9680 -88.1330 90° East 191 220 3,500 -931 Descending FlightAware ADS-B
Mon 03:33:58 PM 41.9690 -88.0970 88° East 187 215 3,000 -1,102 Descending FlightAware ADS-B
Mon 03:34:15 PM 41.9690 -88.0770 90° East 179 206 2,600 -1,000 Descending FlightAware ADS-B
Mon 03:34:40 PM 41.9690 -88.0520 90° East 165 190 2,300 -735 Descending FlightAware ADS-B
Mon 03:35:04 PM 41.9690 -88.0280 90° East 151 174 2,000 -857 Descending FlightAware ADS-B
Mon 03:35:22 PM 41.9690 -88.0100 90° East 142 163 1,700 -808 Descending FlightAware ADS-B
Mon 03:35:56 PM 41.9690 -87.9820 90° East 133 153 1,300 -737 Descending FlightAware ADS-B
Mon 03:36:19 PM 41.9690 -87.9620 90° East 136 157 1,000 -682 Descending FlightAware ADS-B
Mon 03:36:40 PM 41.9690 -87.9450 90° East 135 155 800 -750 Descending FlightAware ADS-B
Mon 03:36:59 PM 41.9690 -87.9290 90° East 133 153 500 -353 Descending FlightAware ADS-B
Mon 03:37:31 PM 41.9690 -87.9060 90° East 133 153 500  Level FlightAware ADS-B

Login

Don't have an account? Register now (free) for customized features, flight alerts, and more!